In Rescue
 
Open Full Screen Window  High Contrast Mode
Wind Gusting 00 knots
06
November 29, 2022 7:22 AM CST
Weather Information
Wind Direction
  240 °
Wind Speed
  06 kt (7 mph)
Wind Gust
  00 kt (0 mph)
Altimeter
29.71 in
Visibility
10 SM
Temperature
-05° C
23° F
Dewpoint
-08° C
18° F
Humidity
80%
1hr Rain Fall
00.00 in.
24hr Rain Fall
00.03 in.
Sky Condition
Overcast @ 9,500 ft
Broken @ 7,500 ft
Scattered @ 6,500 ft
VFR

METAR KEVM 291322Z AUTO 24006KT 10SM SCT065 BKN075 OVC095 M05/M08 A2971 RMK AO2

FAA Disclaimer: The data displayed is for advisory purposes only and is not to be used for flight planning or operations.